»·PEaware :: N70EU KPMD-KAVX

N70EU :: KPMD-KAVX

FLIGHT INFORMATION

Flight Status: Arrived
Operator: Privately registered:
United States
More flights under this callsign
Pilot: Ricardo M. (29263)
Aircraft: BEECH AIRCRAFT SUPER KING AIR 350
(B350)
More flights by this aircraft type
Origin: KPMD Palmdale AF Plant 42
United States
Destination: KAVX Catalina
United States
More flights between these airports :: More routes between these airports
Route: +PMD V386 FIM V299 VTU V27 SXC
File this flight plan on PilotEdge
Remarks:
Altitude:
(Current/Filed)
8,000ft
Speed:
(Current/Filed)
220kts
Departed: 05-Jul-20 01:48 PM
Arrived: 05-Jul-20 02:25 PM
Distance/Time
Traveled:
75nm/0:37
Distance/Time
To Go:
Arrived

Flight Plot

Page will automatically refresh every two minutes.

Flight plan parsing failed; only flown route is shown


Map Options




Map Legend


Flown Route
Filed Route
Departure Airport
Arrival Airport
Navaid (VOR, NDB)
Fix

Horizontal Profiles

Position Reports

Time Latitude Longitude Heading Altitude Ground
Speed
05-Jul-20 13:28 34.636374 -118.096172 187 2512ft 0kts
05-Jul-20 13:29 34.636374 -118.096172 187 2512ft 0kts
05-Jul-20 13:30 34.636374 -118.096172 187 2512ft 0kts
05-Jul-20 13:31 34.636374 -118.096172 187 2512ft 0kts
05-Jul-20 13:32 34.636374 -118.096172 188 2512ft 0kts
05-Jul-20 13:33 34.636374 -118.096172 188 2512ft 0kts
05-Jul-20 13:34 34.636374 -118.096172 188 2512ft 0kts
05-Jul-20 13:35 34.636374 -118.096172 188 2512ft 0kts
05-Jul-20 13:36 34.636374 -118.096172 188 2512ft 0kts
05-Jul-20 13:37 34.636374 -118.096172 188 2512ft 0kts
05-Jul-20 13:38 34.636374 -118.096172 188 2512ft 0kts
05-Jul-20 13:39 34.636374 -118.096172 188 2512ft 0kts
05-Jul-20 13:40 34.636374 -118.096172 188 2512ft 0kts
05-Jul-20 13:41 34.636374 -118.096172 188 2512ft 0kts
05-Jul-20 13:42 34.634354 -118.096297 173 2517ft 13kts
05-Jul-20 13:43 34.633994 -118.090912 86 2509ft 23kts
05-Jul-20 13:44 34.634422 -118.082664 86 2502ft 24kts
05-Jul-20 13:45 34.634871 -118.074414 85 2501ft 16kts
05-Jul-20 13:46 34.632665 -118.075205 265 2506ft 2kts
05-Jul-20 13:47 34.630984 -118.099840 266 2883ft 139kts
05-Jul-20 13:48 34.625563 -118.157044 264 4290ft 187kts
05-Jul-20 13:49 34.619139 -118.219281 264 6239ft 185kts
05-Jul-20 13:50 34.603248 -118.278596 246 7943ft 189kts
05-Jul-20 13:51 34.565297 -118.334294 207 8028ft 250kts
05-Jul-20 13:52 34.498700 -118.373741 207 8075ft 271kts
05-Jul-20 13:53 34.442316 -118.434710 234 8052ft 282kts
05-Jul-20 13:54 34.397845 -118.514989 237 8032ft 287kts
05-Jul-20 13:55 34.378629 -118.605927 269 8019ft 287kts
05-Jul-20 13:56 34.379226 -118.703094 274 8020ft 287kts
05-Jul-20 13:57 34.370660 -118.797711 248 8045ft 284kts
05-Jul-20 13:58 34.340975 -118.887126 248 8028ft 285kts
05-Jul-20 13:59 34.276037 -118.935786 213 8040ft 285kts
05-Jul-20 14:00 34.207248 -118.985694 211 8029ft 288kts
05-Jul-20 14:01 34.137419 -119.034173 211 8033ft 290kts
05-Jul-20 14:02 34.063070 -119.039730 139 8033ft 297kts
05-Jul-20 14:03 34.006696 -118.965661 132 8035ft 299kts
05-Jul-20 14:04 33.944380 -118.900665 143 8030ft 293kts
05-Jul-20 14:05 33.878710 -118.845548 142 8030ft 289kts
05-Jul-20 14:06 33.813321 -118.789888 146 8028ft 287kts
05-Jul-20 14:07 33.748180 -118.734651 146 8029ft 286kts
05-Jul-20 14:08 33.682954 -118.679416 146 8055ft 286kts
05-Jul-20 14:09 33.617740 -118.624237 145 8081ft 286kts
05-Jul-20 14:10 33.552385 -118.569119 146 7821ft 296kts
05-Jul-20 14:11 33.486809 -118.513885 146 6304ft 274kts
05-Jul-20 14:12 33.426046 -118.462747 146 4781ft 259kts
05-Jul-20 14:13 33.370085 -118.417175 174 4082ft 226kts
05-Jul-20 14:14 33.320483 -118.458312 240 4062ft 223kts
05-Jul-20 14:15 33.350857 -118.503312 16 4022ft 225kts
05-Jul-20 14:16 33.376102 -118.439880 80 4018ft 223kts
05-Jul-20 14:17 33.421996 -118.411186 348 4025ft 211kts
05-Jul-20 14:18 33.479043 -118.406542 4 3997ft 197kts
05-Jul-20 14:19 33.519379 -118.436056 318 3926ft 163kts
05-Jul-20 14:20 33.546247 -118.407388 125 3334ft 180kts
05-Jul-20 14:21 33.502111 -118.397437 194 2836ft 176kts
05-Jul-20 14:22 33.457605 -118.407381 188 2491ft 140kts
05-Jul-20 14:23 33.419958 -118.404242 166 2062ft 139kts
05-Jul-20 14:24 33.403708 -118.416742 116 1599ft 14kts
05-Jul-20 14:25 33.403598 -118.416474 114 1598ft 1kts
05-Jul-20 14:26 33.403786 -118.414883 83 1589ft 0kts
05-Jul-20 14:27 33.403718 -118.414819 162 1589ft 0kts
05-Jul-20 14:28 33.403718 -118.414819 162 1589ft 0kts
05-Jul-20 14:29 33.403718 -118.414819 162 1589ft 0kts
05-Jul-20 14:30 33.403718 -118.414819 162 1589ft 0kts

Navigation Log

Ident Type
Flight plan parsing failed, navigation log unavailable